Xenia, Illinois
Current Conditions -  °F | °C
As of 9:15 AM on Saturday 25 Oct 2014 (Local Time) from KFOA Reporting Station
Clear Clear  
Wind Chill: 63°   Ceiling: Unl
Heat Index: 63°   Visibility: 10mi
Dew Point: 58°   Wind: 9mph
Humidity: 84%   Direction: 290°WNW
Pressure: 30.03"   Gusts: NA
Location:  38.64°N, 88.63°W
Report Text: KFOA 251415Z AUTO 29008KT 10SM CLR 17/14 A3003 RMK AO2 T01700142
Loading
Personal Weather Stations






























Interactive Weather Map New forecast layout! Learn more

10-Day Weather Forecast

Advertisements
Track Severe Weather on mobile